Time;durP1;ratioP1;P1;durP2;ratioP2;P2;SDS_P1;SDS_P2;PMS_P1;PMS_P2;Temp;Humidity;BMP_temperature;BMP_pressure;BME280_temperature;BME280_humidity;BME280_pressure;Samples;Min_cycle;Max_cycle;Signal;HPM_P1;HPM_P2
2023/07/29 00:01:26;;;;;;;5.03;3.23;;;17.00;57.40;;;;;;5048525;28;20462;-51
2023/07/29 00:03:54;;;;;;;3.80;3.07;;;17.00;56.50;;;;;;5042632;28;20576;-52
2023/07/29 00:06:21;;;;;;;4.23;2.93;;;16.90;56.40;;;;;;5042208;28;20975;-52
2023/07/29 00:08:47;;;;;;;10.20;3.10;;;16.90;56.10;;;;;;5043648;28;20574;-51
2023/07/29 00:11:14;;;;;;;4.53;3.47;;;16.90;56.20;;;;;;5046493;28;20513;-51
2023/07/29 00:13:40;;;;;;;6.17;3.00;;;16.90;56.40;;;;;;5046179;28;20512;-51
2023/07/29 00:16:07;;;;;;;8.80;3.23;;;16.80;56.00;;;;;;5051464;28;20480;-50
2023/07/29 00:18:34;;;;;;;4.43;3.10;;;16.80;55.40;;;;;;5047599;28;20482;-51
2023/07/29 00:21:01;;;;;;;12.57;3.27;;;16.80;55.60;;;;;;5049961;28;20509;-51
2023/07/29 00:23:28;;;;;;;7.03;3.53;;;16.70;55.20;;;;;;5050619;28;20554;-51
2023/07/29 00:25:55;;;;;;;3.97;3.50;;;16.70;55.90;;;;;;5046341;28;20552;-51
2023/07/29 00:28:21;;;;;;;6.90;3.67;;;16.70;56.30;;;;;;5047229;28;20490;-52
2023/07/29 00:30:48;;;;;;;6.07;3.67;;;16.70;57.30;;;;;;5048136;28;20912;-51
2023/07/29 00:33:14;;;;;;;4.20;3.80;;;16.70;56.90;;;;;;5051369;28;20552;-51
2023/07/29 00:35:41;;;;;;;10.50;3.80;;;16.60;56.80;;;;;;5049789;28;20531;-51
2023/07/29 00:38:09;;;;;;;4.40;3.90;;;16.70;58.10;;;;;;5049572;28;20956;-52
2023/07/29 00:40:37;;;;;;;5.33;3.53;;;16.60;58.00;;;;;;5043894;28;20533;-51
2023/07/29 00:43:03;;;;;;;5.30;4.10;;;16.60;57.70;;;;;;5047816;28;20457;-52
2023/07/29 00:45:31;;;;;;;5.77;3.37;;;16.50;57.00;;;;;;5047906;28;20462;-52
2023/07/29 00:47:58;;;;;;;5.43;3.60;;;16.50;57.30;;;;;;5047368;28;20569;-51
2023/07/29 00:50:24;;;;;;;7.03;3.80;;;16.50;58.30;;;;;;5044439;28;20551;-51
2023/07/29 00:52:51;;;;;;;6.70;3.43;;;16.50;57.90;;;;;;5050469;28;20523;-51
2023/07/29 00:55:19;;;;;;;3.43;3.00;;;16.40;58.10;;;;;;5049591;28;20990;-51
2023/07/29 00:57:48;;;;;;;6.50;4.57;;;16.30;57.80;;;;;;5048444;28;20541;-51
2023/07/29 01:00:15;;;;;;;7.00;4.23;;;16.40;59.50;;;;;;5040412;28;20507;-51
2023/07/29 01:02:42;;;;;;;6.77;3.80;;;16.30;59.30;;;;;;5048958;28;20535;-50
2023/07/29 01:05:11;;;;;;;5.50;3.63;;;16.30;58.40;;;;;;5045860;28;20899;-51
2023/07/29 01:07:45;;;;;;;10.33;3.50;;;16.30;59.70;;;;;;5039787;28;20545;-51
2023/07/29 01:10:20;;;;;;;6.53;3.30;;;16.20;59.40;;;;;;5043414;28;20500;-52
2023/07/29 01:12:52;;;;;;;5.53;3.30;;;16.20;60.00;;;;;;5046333;28;20552;-51
2023/07/29 01:15:24;;;;;;;3.60;3.30;;;16.20;60.10;;;;;;5049191;28;20548;-50
2023/07/29 01:17:55;;;;;;;4.00;3.23;;;16.20;59.10;;;;;;5052755;28;20981;-51
2023/07/29 01:20:24;;;;;;;3.30;3.00;;;16.10;58.60;;;;;;5046403;28;20507;-51
2023/07/29 01:22:51;;;;;;;10.13;4.30;;;16.10;58.80;;;;;;5048962;28;20497;-53
2023/07/29 01:25:19;;;;;;;4.50;2.93;;;16.00;59.40;;;;;;5052524;28;20523;-50
2023/07/29 01:27:47;;;;;;;4.50;3.03;;;16.00;58.20;;;;;;5054459;28;20568;-51
2023/07/29 01:30:13;;;;;;;6.97;3.50;;;16.00;57.80;;;;;;5048634;28;20505;-51
2023/07/29 01:32:44;;;;;;;11.20;3.60;;;16.00;58.00;;;;;;5053894;28;20488;-51
2023/07/29 01:35:20;;;;;;;10.83;3.77;;;16.00;58.70;;;;;;5053160;28;20517;-50
2023/07/29 01:37:52;;;;;;;8.70;3.53;;;16.00;60.50;;;;;;5052158;28;20453;-51
2023/07/29 01:40:21;;;;;;;6.17;3.20;;;16.10;60.80;;;;;;5041678;28;20533;-52
2023/07/29 01:42:48;;;;;;;3.27;3.07;;;16.00;60.30;;;;;;5050366;28;21003;-51
2023/07/29 01:45:15;;;;;;;4.17;3.00;;;16.00;59.40;;;;;;5043336;28;20576;-52
2023/07/29 01:47:41;;;;;;;5.83;3.40;;;15.90;58.60;;;;;;5048219;28;21076;-50
2023/07/29 01:50:09;;;;;;;5.57;3.07;;;15.90;59.60;;;;;;5053272;28;20540;-50
2023/07/29 01:52:35;;;;;;;7.13;3.17;;;15.90;58.70;;;;;;5049727;28;20469;-52
2023/07/29 01:55:02;;;;;;;6.20;3.37;;;15.90;58.00;;;;;;5050456;28;20972;-52
2023/07/29 01:57:30;;;;;;;5.80;3.47;;;15.80;58.10;;;;;;5052198;28;20853;-51
2023/07/29 01:59:56;;;;;;;10.37;3.97;;;15.80;56.50;;;;;;5049385;28;20482;-51
2023/07/29 02:02:23;;;;;;;5.30;3.23;;;15.80;57.30;;;;;;5044193;28;20553;-51
2023/07/29 02:04:51;;;;;;;3.67;3.33;;;15.70;56.10;;;;;;5052819;28;20557;-51
2023/07/29 02:07:18;;;;;;;6.53;4.37;;;15.70;56.60;;;;;;5051704;28;20619;-51
2023/07/29 02:09:44;;;;;;;5.33;3.40;;;15.80;57.80;;;;;;5033696;28;20870;-52
2023/07/29 02:12:11;;;;;;;6.27;4.00;;;15.80;58.70;;;;;;5053739;28;20477;-50
2023/07/29 02:14:39;;;;;;;4.47;3.53;;;15.80;59.00;;;;;;5052854;28;20545;-52
2023/07/29 02:17:05;;;;;;;6.60;3.40;;;15.80;58.80;;;;;;5052694;28;20557;-50
2023/07/29 02:19:32;;;;;;;7.40;3.33;;;15.80;59.50;;;;;;5050420;28;20553;-51
2023/07/29 02:21:58;;;;;;;12.40;3.70;;;15.80;59.40;;;;;;5047410;28;20541;-52
2023/07/29 02:24:25;;;;;;;6.03;3.70;;;15.80;58.80;;;;;;5044564;28;21042;-51
2023/07/29 02:26:51;;;;;;;4.90;3.47;;;15.70;58.10;;;;;;5046458;28;20545;-50
2023/07/29 02:29:18;;;;;;;10.07;3.40;;;15.70;58.60;;;;;;5043926;28;20569;-52
2023/07/29 02:31:46;;;;;;;13.10;4.13;;;15.70;59.30;;;;;;5042910;28;20446;-51
2023/07/29 02:34:12;;;;;;;5.83;3.57;;;15.70;60.10;;;;;;5042624;28;20569;-50
2023/07/29 02:36:39;;;;;;;11.23;3.30;;;15.70;59.90;;;;;;5050102;28;20469;-52
2023/07/29 02:39:06;;;;;;;8.90;3.47;;;15.60;59.70;;;;;;5049408;28;20461;-51
2023/07/29 02:41:32;;;;;;;10.23;4.10;;;15.60;59.80;;;;;;5045338;28;20481;-51
2023/07/29 02:43:59;;;;;;;3.47;3.17;;;15.70;60.30;;;;;;5046579;28;20551;-51
2023/07/29 02:46:26;;;;;;;14.23;3.60;;;15.70;60.50;;;;;;5045102;28;20553;-50
2023/07/29 02:48:53;;;;;;;11.70;3.40;;;15.70;60.30;;;;;;5049065;28;20926;-51
2023/07/29 02:51:20;;;;;;;3.50;3.10;;;15.70;60.00;;;;;;5048728;28;20552;-51
2023/07/29 02:53:47;;;;;;;4.10;3.53;;;15.70;59.60;;;;;;5047237;28;20568;-51
2023/07/29 02:56:13;;;;;;;5.13;3.20;;;15.70;59.60;;;;;;5043520;28;20870;-51
2023/07/29 02:58:40;;;;;;;12.20;3.40;;;15.70;60.30;;;;;;5042184;28;20529;-51
2023/07/29 03:01:07;;;;;;;8.67;3.40;;;15.80;60.50;;;;;;5047239;28;20457;-52
2023/07/29 03:03:34;;;;;;;9.63;3.77;;;15.70;59.40;;;;;;5048842;28;20493;-51
2023/07/29 03:06:04;;;;;;;5.23;3.30;;;15.80;60.00;;;;;;5050816;28;20548;-51
2023/07/29 03:08:31;;;;;;;5.40;3.90;;;15.70;59.60;;;;;;5044154;28;20564;-51
2023/07/29 03:10:58;;;;;;;12.60;4.13;;;15.70;59.60;;;;;;5046877;28;20557;-51
2023/07/29 03:13:25;;;;;;;4.07;3.77;;;15.70;59.60;;;;;;5042588;28;20478;-51
2023/07/29 03:15:52;;;;;;;6.67;3.20;;;15.70;60.10;;;;;;5045370;28;20477;-51
2023/07/29 03:18:18;;;;;;;6.20;3.20;;;15.70;60.50;;;;;;5043734;28;20536;-51
2023/07/29 03:20:45;;;;;;;7.03;3.23;;;15.70;61.10;;;;;;5049972;28;20553;-51
2023/07/29 03:23:13;;;;;;;12.57;4.13;;;15.80;62.80;;;;;;5050069;28;20564;-51
2023/07/29 03:25:39;;;;;;;9.73;3.93;;;15.70;61.10;;;;;;5049666;28;20485;-52
2023/07/29 03:28:06;;;;;;;7.30;3.70;;;15.80;62.20;;;;;;5051265;28;20560;-51
2023/07/29 03:30:32;;;;;;;6.20;3.53;;;15.80;62.70;;;;;;5046456;28;20508;-51
2023/07/29 03:32:59;;;;;;;4.60;4.17;;;15.80;62.40;;;;;;5048504;28;20465;-52
2023/07/29 03:35:25;;;;;;;4.47;3.33;;;15.80;61.60;;;;;;5049471;28;20540;-51
2023/07/29 03:37:52;;;;;;;13.63;4.00;;;15.80;61.80;;;;;;5052752;28;20904;-51
2023/07/29 03:40:20;;;;;;;9.33;4.50;;;15.80;62.60;;;;;;5051186;28;20457;-51
2023/07/29 03:42:47;;;;;;;9.67;4.07;;;15.90;62.80;;;;;;5051777;28;20554;-52
2023/07/29 03:45:13;;;;;;;6.20;4.13;;;15.90;63.00;;;;;;5048161;28;21014;-51
2023/07/29 03:47:40;;;;;;;9.20;3.87;;;15.90;62.50;;;;;;5046536;28;20504;-51
2023/07/29 03:50:07;;;;;;;4.70;4.30;;;15.90;62.70;;;;;;5045711;28;20497;-51
2023/07/29 03:52:33;;;;;;;5.20;4.10;;;15.90;62.90;;;;;;5047430;28;20477;-51
2023/07/29 03:55:00;;;;;;;10.93;4.73;;;15.90;62.90;;;;;;5050573;28;21014;-50
2023/07/29 03:57:28;;;;;;;6.43;4.87;;;15.90;62.90;;;;;;5052141;28;20520;-51
2023/07/29 03:59:55;;;;;;;8.27;5.07;;;15.90;64.70;;;;;;5043838;28;20964;-51
2023/07/29 04:02:21;;;;;;;7.10;4.97;;;15.90;66.80;;;;;;5051137;28;21023;-51
2023/07/29 04:04:48;;;;;;;6.10;5.50;;;15.90;66.50;;;;;;5044484;28;20578;-50
2023/07/29 04:07:15;;;;;;;9.23;6.57;;;16.00;66.30;;;;;;5050281;28;20569;-50
2023/07/29 04:09:43;;;;;;;6.83;5.40;;;16.00;66.30;;;;;;5049906;28;20921;-51
2023/07/29 04:12:09;;;;;;;8.53;5.50;;;16.00;66.00;;;;;;5044569;28;20967;-51
2023/07/29 04:14:37;;;;;;;8.77;5.83;;;16.00;66.00;;;;;;5048464;28;20520;-51
2023/07/29 04:17:04;;;;;;;6.97;6.27;;;16.00;66.70;;;;;;5052148;28;20525;-51
2023/07/29 04:19:30;;;;;;;12.57;6.90;;;16.00;66.60;;;;;;5048026;28;20537;-51
2023/07/29 04:21:57;;;;;;;9.23;6.53;;;16.00;66.10;;;;;;5046012;28;20513;-52
2023/07/29 04:24:24;;;;;;;7.07;6.47;;;16.00;65.60;;;;;;5047989;28;20482;-51
2023/07/29 04:26:50;;;;;;;7.53;6.47;;;16.00;65.40;;;;;;5052122;28;20450;-50
2023/07/29 04:29:18;;;;;;;24.63;6.00;;;16.00;65.90;;;;;;5050102;28;20573;-52
2023/07/29 04:31:45;;;;;;;7.80;5.23;;;16.00;66.10;;;;;;5051971;28;20474;-51
2023/07/29 04:34:12;;;;;;;5.63;5.03;;;16.00;65.70;;;;;;5048124;28;20577;-52
2023/07/29 04:36:38;;;;;;;6.33;4.60;;;16.00;66.50;;;;;;5051979;28;20504;-51
2023/07/29 04:39:05;;;;;;;8.50;5.30;;;16.10;67.30;;;;;;5039697;28;20741;-51
2023/07/29 04:41:31;;;;;;;9.93;4.60;;;16.10;68.30;;;;;;5047466;28;20541;-52
2023/07/29 04:43:58;;;;;;;16.67;4.60;;;16.10;68.80;;;;;;5047804;28;20573;-52
2023/07/29 04:46:24;;;;;;;6.20;4.30;;;16.20;68.90;;;;;;5049753;28;20612;-52
2023/07/29 04:48:52;;;;;;;12.80;5.83;;;16.20;68.80;;;;;;5050895;28;21093;-52
2023/07/29 04:51:19;;;;;;;7.83;5.03;;;16.20;68.50;;;;;;5044566;28;20544;-53
2023/07/29 04:53:46;;;;;;;12.80;4.93;;;16.20;68.60;;;;;;5047976;28;20895;-52
2023/07/29 04:56:12;;;;;;;6.90;4.80;;;16.20;68.80;;;;;;5048714;28;20549;-52
2023/07/29 04:58:39;;;;;;;8.90;5.70;;;16.30;69.20;;;;;;5045367;28;21031;-53
2023/07/29 05:01:06;;;;;;;5.93;5.33;;;16.40;69.50;;;;;;5051285;28;20541;-53
2023/07/29 05:03:32;;;;;;;8.40;5.43;;;16.50;69.60;;;;;;5053266;28;20567;-52
2023/07/29 05:06:00;;;;;;;6.20;5.70;;;16.50;69.70;;;;;;5050664;28;20486;-52
2023/07/29 05:08:27;;;;;;;10.03;6.00;;;16.60;69.60;;;;;;5052576;28;21010;-52
2023/07/29 05:10:54;;;;;;;9.03;7.27;;;16.70;69.30;;;;;;5053060;28;20916;-52
2023/07/29 05:13:20;;;;;;;8.03;7.23;;;16.70;69.50;;;;;;5053148;28;20489;-51
2023/07/29 05:15:48;;;;;;;9.00;8.10;;;16.90;70.70;;;;;;5051790;28;20457;-52
2023/07/29 05:18:15;;;;;;;10.57;7.40;;;17.00;71.40;;;;;;5053880;28;20536;-52
2023/07/29 05:20:41;;;;;;;10.53;7.90;;;17.00;71.80;;;;;;5052309;28;20545;-54
2023/07/29 05:23:09;;;;;;;12.63;9.03;;;17.10;70.40;;;;;;5051119;28;21001;-52
2023/07/29 05:25:36;;;;;;;8.90;8.00;;;17.10;70.20;;;;;;5053841;28;20493;-51
2023/07/29 05:28:02;;;;;;;9.77;8.80;;;17.10;69.70;;;;;;5054647;28;21011;-51
2023/07/29 05:30:30;;;;;;;10.43;8.43;;;17.20;69.00;;;;;;5050815;28;20560;-52
2023/07/29 05:32:57;;;;;;;7.87;7.17;;;17.20;68.40;;;;;;5052398;28;20503;-53
2023/07/29 05:35:24;;;;;;;9.93;8.40;;;17.20;68.60;;;;;;5051355;28;20540;-52
2023/07/29 05:37:50;;;;;;;26.93;9.43;;;17.30;68.60;;;;;;5050216;28;20553;-51
2023/07/29 05:40:18;;;;;;;10.73;9.30;;;17.40;69.70;;;;;;5053446;28;20544;-52
2023/07/29 05:42:45;;;;;;;8.83;7.93;;;17.50;68.00;;;;;;5054845;28;20477;-51
2023/07/29 05:45:12;;;;;;;9.53;8.57;;;17.50;66.60;;;;;;5048941;28;20478;-51
2023/07/29 05:47:39;;;;;;;10.10;9.20;;;17.60;65.60;;;;;;5051167;28;20457;-53
2023/07/29 05:50:06;;;;;;;11.00;8.87;;;17.60;62.20;;;;;;5052505;28;20581;-52
2023/07/29 05:52:33;;;;;;;10.07;8.60;;;17.60;61.00;;;;;;5052249;28;20466;-52
2023/07/29 05:55:00;;;;;;;9.77;8.77;;;17.60;60.10;;;;;;5045205;28;20573;-51
2023/07/29 05:57:29;;;;;;;10.30;9.30;;;17.70;59.60;;;;;;5053618;28;20525;-51
2023/07/29 05:59:56;;;;;;;14.50;10.10;;;17.70;58.20;;;;;;5052306;28;20557;-51
2023/07/29 06:02:22;;;;;;;19.10;10.23;;;17.70;56.10;;;;;;5054422;28;20521;-52
2023/07/29 06:04:49;;;;;;;12.50;11.27;;;17.70;53.90;;;;;;5048579;28;20572;-53
2023/07/29 06:07:15;;;;;;;10.67;9.63;;;17.70;52.20;;;;;;5050954;28;20469;-51
2023/07/29 06:09:42;;;;;;;10.23;9.23;;;17.80;51.70;;;;;;5052878;28;20556;-51
2023/07/29 06:12:09;;;;;;;10.87;9.50;;;17.90;49.50;;;;;;5053053;28;20457;-52
2023/07/29 06:14:37;;;;;;;10.80;9.07;;;17.90;48.30;;;;;;5048629;28;21072;-52
2023/07/29 06:17:04;;;;;;;11.87;8.70;;;17.90;45.70;;;;;;5053721;28;20454;-52
2023/07/29 06:19:31;;;;;;;11.83;8.77;;;18.00;44.30;;;;;;5051925;28;21035;-51
2023/07/29 06:21:57;;;;;;;9.77;8.77;;;18.10;41.10;;;;;;5051805;28;20494;-52
2023/07/29 06:24:24;;;;;;;9.03;8.23;;;18.10;38.10;;;;;;5048077;28;20565;-51
2023/07/29 06:26:50;;;;;;;10.23;8.17;;;18.20;36.10;;;;;;5049284;28;20898;-52
2023/07/29 06:29:17;;;;;;;11.37;9.03;;;18.30;34.00;;;;;;5049213;28;20904;-51
2023/07/29 06:31:45;;;;;;;8.40;7.60;;;18.30;31.70;;;;;;5044897;28;20521;-51
2023/07/29 06:34:11;;;;;;;9.97;9.07;;;18.40;31.40;;;;;;5051880;28;20552;-51
2023/07/29 06:36:38;;;;;;;8.70;7.63;;;18.40;31.40;;;;;;5050140;28;20485;-52
2023/07/29 06:39:04;;;;;;;10.00;9.00;;;18.60;31.20;;;;;;5046491;28;20561;-52
2023/07/29 06:41:31;;;;;;;7.77;7.17;;;18.60;34.50;;;;;;5042492;28;20545;-52
2023/07/29 06:43:57;;;;;;;8.20;7.50;;;18.60;41.80;;;;;;5048161;28;20478;-51
2023/07/29 06:46:24;;;;;;;8.77;7.87;;;18.70;41.10;;;;;;5048164;28;20500;-52
2023/07/29 06:48:52;;;;;;;8.83;7.80;;;18.70;41.10;;;;;;5053033;28;20508;-51
2023/07/29 06:51:18;;;;;;;8.00;6.73;;;18.80;45.10;;;;;;5049607;28;20554;-53
2023/07/29 06:53:45;;;;;;;8.13;7.27;;;18.90;44.70;;;;;;5049536;28;20572;-51
2023/07/29 06:56:12;;;;;;;8.43;7.47;;;19.00;50.30;;;;;;5047730;28;20511;-52
2023/07/29 06:58:38;;;;;;;9.80;7.87;;;19.10;55.00;;;;;;5051019;28;20470;-52
2023/07/29 07:01:05;;;;;;;7.90;7.07;;;19.20;61.90;;;;;;5047450;28;20550;-54
2023/07/29 07:03:31;;;;;;;9.50;7.73;;;19.20;63.30;;;;;;5047148;28;20536;-52
2023/07/29 07:06:00;;;;;;;8.13;7.33;;;19.30;75.90;;;;;;5050739;28;20548;-54
2023/07/29 07:08:26;;;;;;;7.03;6.40;;;19.40;74.70;;;;;;5047747;28;20489;-52
2023/07/29 07:10:53;;;;;;;9.23;6.23;;;19.50;75.40;;;;;;5042204;28;21007;-51
2023/07/29 07:13:19;;;;;;;7.77;6.53;;;19.60;82.10;;;;;;5040955;28;20481;-52
2023/07/29 07:15:46;;;;;;;6.93;6.10;;;19.70;83.10;;;;;;5048126;28;20537;-51
2023/07/29 07:18:12;;;;;;;8.67;5.73;;;19.80;84.80;;;;;;5047772;28;20454;-51
2023/07/29 07:20:39;;;;;;;9.50;7.63;;;19.90;85.40;;;;;;5041225;28;20884;-53
2023/07/29 07:23:10;;;;;;;10.23;7.50;;;19.90;93.40;;;;;;5040809;28;20867;-51
2023/07/29 07:25:37;;;;;;;7.10;6.50;;;20.00;99.90;;;;;;5048330;28;20466;-52
2023/07/29 07:28:04;;;;;;;7.60;5.90;;;20.00;99.90;;;;;;5046467;28;20553;-51
2023/07/29 07:30:31;;;;;;;7.00;6.30;;;20.10;99.90;;;;;;5049800;28;21058;-51
2023/07/29 07:32:57;;;;;;;7.20;6.50;;;20.20;99.90;;;;;;5051654;28;20481;-51
2023/07/29 07:35:24;;;;;;;6.87;6.10;;;20.10;99.90;;;;;;5051575;28;20454;-52
2023/07/29 07:37:50;;;;;;;13.10;6.80;;;20.20;99.90;;;;;;5050606;28;20544;-51
2023/07/29 07:40:19;;;;;;;9.57;6.20;;;20.20;99.90;;;;;;5050875;28;20545;-51
2023/07/29 07:42:45;;;;;;;8.40;6.47;;;20.20;99.90;;;;;;5049894;28;20544;-52
2023/07/29 07:45:12;;;;;;;7.57;6.73;;;20.20;99.90;;;;;;5048578;28;20560;-52
2023/07/29 07:47:38;;;;;;;6.00;5.50;;;20.20;99.90;;;;;;5051163;28;20525;-52
2023/07/29 07:50:05;;;;;;;9.10;6.23;;;20.30;99.90;;;;;;5051983;28;20600;-51
2023/07/29 07:52:32;;;;;;;12.60;7.23;;;20.40;99.90;;;;;;5047672;28;20549;-52
2023/07/29 07:54:59;;;;;;;6.60;6.00;;;20.40;99.90;;;;;;5041021;28;20600;-52
2023/07/29 07:57:26;;;;;;;13.13;6.50;;;20.50;99.90;;;;;;5050708;28;21007;-52
2023/07/29 07:59:53;;;;;;;10.43;6.70;;;20.50;99.90;;;;;;5050174;28;20991;-51
2023/07/29 08:02:20;;;;;;;7.30;6.60;;;20.60;99.90;;;;;;5051990;28;20498;-52
2023/07/29 08:04:46;;;;;;;7.87;7.07;;;20.60;99.90;;;;;;5050869;28;20477;-51
2023/07/29 08:07:13;;;;;;;9.70;6.63;;;20.70;99.90;;;;;;5052016;28;20481;-52
2023/07/29 08:09:40;;;;;;;7.17;6.47;;;20.70;99.90;;;;;;5044990;28;20557;-52
2023/07/29 08:12:07;;;;;;;6.03;5.50;;;20.80;99.90;;;;;;5050232;28;20490;-52
2023/07/29 08:14:35;;;;;;;11.03;5.57;;;20.80;99.90;;;;;;5051083;28;20500;-52
2023/07/29 08:17:01;;;;;;;7.73;6.00;;;20.90;99.90;;;;;;5051764;28;20454;-52
2023/07/29 08:19:29;;;;;;;9.87;6.90;;;21.20;99.90;;;;;;5051992;28;20450;-51
2023/07/29 08:21:55;;;;;;;6.40;5.90;;;21.20;99.90;;;;;;5056167;28;20567;-52
2023/07/29 08:24:22;;;;;;;8.13;6.30;;;21.30;99.90;;;;;;5054351;28;20531;-52
2023/07/29 08:26:49;;;;;;;8.63;5.93;;;21.50;99.90;;;;;;5048112;28;20979;-52
2023/07/29 08:29:15;;;;;;;5.87;5.10;;;21.60;99.90;;;;;;5052306;28;20976;-52
2023/07/29 08:31:43;;;;;;;8.40;4.90;;;21.80;99.90;;;;;;5049875;28;20540;-51
2023/07/29 08:34:09;;;;;;;8.30;5.33;;;21.90;99.90;;;;;;5053856;28;20501;-51
2023/07/29 08:36:36;;;;;;;5.80;5.30;;;21.90;99.90;;;;;;5053710;28;20548;-51
2023/07/29 08:39:03;;;;;;;7.27;5.77;;;22.00;99.90;;;;;;5054683;28;20553;-51
2023/07/29 08:41:35;;;;;;;8.03;5.23;;;22.10;99.90;;;;;;5048602;28;20876;-51
2023/07/29 08:44:10;;;;;;;7.23;6.03;;;22.10;99.90;;;;;;5053186;28;20572;-51
2023/07/29 08:46:37;;;;;;;5.70;5.20;;;22.10;81.20;;;;;;5046474;28;20495;-51
2023/07/29 08:49:05;;;;;;;9.23;5.13;;;22.10;99.90;;;;;;5051996;28;20553;-50
2023/07/29 08:51:33;;;;;;;4.93;4.20;;;22.10;99.90;;;;;;5052654;28;20583;-51
2023/07/29 08:54:00;;;;;;;5.03;4.40;;;22.10;99.90;;;;;;5053484;28;20572;-50
2023/07/29 08:56:27;;;;;;;5.40;4.50;;;22.10;99.90;;;;;;5048779;28;20461;-51
2023/07/29 08:58:55;;;;;;;5.30;4.13;;;22.10;99.90;;;;;;5051408;28;20947;-51
2023/07/29 09:01:21;;;;;;;4.93;4.00;;;22.10;99.90;;;;;;5045132;28;20542;-51
2023/07/29 09:03:48;;;;;;;4.00;3.70;;;22.10;99.90;;;;;;5051909;28;20548;-50
2023/07/29 09:06:17;;;;;;;4.30;3.97;;;22.10;99.90;;;;;;5054378;28;20849;-55
2023/07/29 09:08:45;;;;;;;4.47;3.90;;;22.20;99.90;;;;;;5052815;28;20458;-51
2023/07/29 09:11:16;;;;;;;3.70;3.50;;;22.20;99.90;;;;;;5051418;28;20518;-52
2023/07/29 09:13:42;;;;;;;3.97;3.67;;;22.20;99.90;;;;;;5048874;28;20513;-52
2023/07/29 09:16:10;;;;;;;4.30;3.90;;;22.30;99.90;;;;;;5045531;28;20593;-52
2023/07/29 09:18:36;;;;;;;3.90;3.50;;;22.20;34.60;;;;;;5051621;28;20470;-51
2023/07/29 09:21:03;;;;;;;3.30;3.00;;;22.20;25.90;;;;;;5054267;28;20548;-51
2023/07/29 09:23:39;;;;;;;11.47;3.57;;;22.20;21.00;;;;;;5049974;28;20480;-51
2023/07/29 09:26:06;;;;;;;3.40;3.10;;;22.20;25.20;;;;;;5050855;28;20455;-51
2023/07/29 09:28:35;;;;;;;3.40;3.10;;;22.20;99.90;;;;;;5053123;28;20549;-51
2023/07/29 09:31:02;;;;;;;5.10;3.33;;;22.20;87.60;;;;;;5051269;28;20477;-51
2023/07/29 09:33:29;;;;;;;9.53;3.60;;;22.20;99.30;;;;;;5048196;28;20560;-51
2023/07/29 09:35:55;;;;;;;3.03;2.83;;;22.20;21.30;;;;;;5050905;28;20473;-51
2023/07/29 09:38:27;;;;;;;3.17;2.97;;;22.20;99.90;;;;;;5054413;28;20466;-50
2023/07/29 09:40:58;;;;;;;3.70;3.43;;;22.20;95.70;;;;;;5052271;28;20912;-51
2023/07/29 09:43:27;;;;;;;3.47;3.17;;;22.10;26.70;;;;;;5052448;28;20843;-51
2023/07/29 09:45:53;;;;;;;5.30;3.00;;;22.20;28.80;;;;;;5051371;28;20944;-51
2023/07/29 09:48:23;;;;;;;4.53;3.40;;;22.30;76.80;;;;;;5045638;28;20522;-50
2023/07/29 09:50:50;;;;;;;2.93;2.73;;;22.30;20.90;;;;;;5051397;28;20521;-52
2023/07/29 09:53:17;;;;;;;4.33;3.00;;;22.30;27.90;;;;;;5051405;28;20555;-51
2023/07/29 09:55:47;;;;;;;5.77;3.23;;;22.40;23.00;;;;;;5048265;28;20541;-51
2023/07/29 09:58:19;;;;;;;8.47;3.20;;;22.30;29.40;;;;;;5051271;28;20593;-51
2023/07/29 10:00:47;;;;;;;3.33;3.03;;;22.20;40.70;;;;;;5041485;28;21086;-51
2023/07/29 10:03:15;;;;;;;12.43;3.07;;;22.30;29.50;;;;;;5049899;28;20584;-52
2023/07/29 10:05:42;;;;;;;2.83;2.63;;;22.20;28.10;;;;;;5046182;28;20545;-52
2023/07/29 10:08:10;;;;;;;3.00;2.70;;;22.20;37.10;;;;;;5051153;28;20548;-52
2023/07/29 10:10:36;;;;;;;5.90;3.10;;;22.20;35.30;;;;;;5050100;28;20496;-51
2023/07/29 10:13:04;;;;;;;16.63;3.10;;;22.30;41.40;;;;;;5052261;28;20525;-51
2023/07/29 10:15:32;;;;;;;3.33;3.03;;;22.40;34.60;;;;;;5051892;28;20967;-51
2023/07/29 10:18:00;;;;;;;2.90;2.70;;;22.50;28.40;;;;;;5051192;28;20540;-51
2023/07/29 10:20:26;;;;;;;10.43;3.80;;;22.60;99.90;;;;;;5049558;28;20569;-51
2023/07/29 10:22:59;;;;;;;4.43;2.80;;;22.50;24.00;;;;;;5049905;28;21046;-52
2023/07/29 10:25:38;;;;;;;3.20;2.90;;;22.40;43.50;;;;;;5046502;28;20921;-51
2023/07/29 10:28:06;;;;;;;3.13;2.83;;;22.30;33.10;;;;;;5049427;28;20509;-51
2023/07/29 10:30:34;;;;;;;5.13;3.57;;;22.20;24.00;;;;;;5044696;28;21227;-51
2023/07/29 10:33:03;;;;;;;3.97;3.67;;;22.10;99.90;;;;;;5052008;28;20494;-51
2023/07/29 10:35:30;;;;;;;3.27;3.07;;;21.90;99.90;;;;;;5046071;28;20944;-51
2023/07/29 10:37:57;;;;;;;4.13;2.97;;;21.70;99.90;;;;;;5043891;28;20548;-52
2023/07/29 10:40:24;;;;;;;3.97;3.57;;;21.60;99.90;;;;;;5052395;28;20490;-51
2023/07/29 10:43:01;;;;;;;3.30;3.00;;;21.40;99.90;;;;;;5052180;28;20473;-52
2023/07/29 10:45:39;;;;;;;10.83;3.33;;;21.30;99.90;;;;;;5042817;28;20454;-51
2023/07/29 10:48:08;;;;;;;5.50;3.37;;;21.10;99.90;;;;;;5047668;28;20458;-51
2023/07/29 10:50:35;;;;;;;16.83;4.40;;;20.90;99.90;;;;;;5044780;28;20486;-51
2023/07/29 10:53:01;;;;;;;5.60;4.00;;;20.80;98.20;;;;;;5045497;28;20569;-51
2023/07/29 10:55:30;;;;;;;3.93;3.67;;;20.70;79.60;;;;;;5042783;28;20492;-52
2023/07/29 10:58:08;;;;;;;5.47;3.83;;;20.50;75.70;;;;;;5053028;28;20503;-54
2023/07/29 11:00:35;;;;;;;5.03;3.73;;;20.30;73.90;;;;;;5047697;28;21035;-51
2023/07/29 11:03:05;;;;;;;4.10;3.70;;;20.20;67.00;;;;;;5051832;28;20505;-50
2023/07/29 11:05:50;;;;;;;10.97;4.57;;;20.10;61.30;;;;;;5048963;28;20557;-51
2023/07/29 11:08:24;;;;;;;4.50;4.10;;;20.00;55.40;;;;;;5045433;28;20458;-50
2023/07/29 11:11:07;;;;;;;5.37;4.50;;;19.90;52.10;;;;;;5049266;28;20486;-51
2023/07/29 11:13:35;;;;;;;3.90;3.50;;;19.90;48.60;;;;;;5050444;28;20862;-51
2023/07/29 11:16:02;;;;;;;8.50;3.87;;;19.80;46.30;;;;;;5049628;28;20960;-51
2023/07/29 11:18:32;;;;;;;8.37;4.37;;;19.70;46.00;;;;;;5051712;28;20454;-50
2023/07/29 11:20:59;;;;;;;7.43;4.10;;;19.60;45.30;;;;;;5048853;28;20461;-50
2023/07/29 11:23:32;;;;;;;6.80;4.20;;;19.50;44.30;;;;;;5043477;28;21034;-51
2023/07/29 11:25:59;;;;;;;10.90;3.90;;;19.50;43.30;;;;;;5039565;28;20466;-52
2023/07/29 11:28:26;;;;;;;10.40;4.80;;;19.50;41.30;;;;;;5049265;28;20480;-50
2023/07/29 11:30:54;;;;;;;7.93;3.63;;;19.40;39.90;;;;;;5057378;28;20609;-52
2023/07/29 11:33:21;;;;;;;10.10;4.23;;;19.30;41.60;;;;;;5050525;28;20552;-51
2023/07/29 11:35:50;;;;;;;7.37;3.80;;;19.30;41.40;;;;;;5050623;28;20565;-51
2023/07/29 11:38:18;;;;;;;6.47;4.10;;;19.20;41.10;;;;;;5049602;28;20944;-52
2023/07/29 11:40:54;;;;;;;5.80;4.37;;;19.20;41.10;;;;;;5048860;28;20485;-52
2023/07/29 11:43:20;;;;;;;7.67;4.63;;;19.20;41.70;;;;;;5041407;28;21062;-51
2023/07/29 11:45:47;;;;;;;5.50;4.10;;;19.20;42.20;;;;;;5048400;28;20457;-51
2023/07/29 11:48:13;;;;;;;5.03;4.00;;;19.30;41.30;;;;;;5049632;28;21031;-49
2023/07/29 11:50:40;;;;;;;14.33;4.70;;;19.30;41.50;;;;;;5050221;28;20922;-50
2023/07/29 11:53:08;;;;;;;7.27;4.43;;;19.40;41.00;;;;;;5047129;28;20553;-52
2023/07/29 11:55:35;;;;;;;7.60;4.57;;;19.40;41.00;;;;;;5048491;28;20461;-50
2023/07/29 11:58:02;;;;;;;9.87;4.93;;;19.50;41.00;;;;;;5049439;28;20461;-52
2023/07/29 12:00:29;;;;;;;9.43;4.83;;;19.50;41.00;;;;;;5046412;28;20454;-51
2023/07/29 12:02:56;;;;;;;6.60;5.23;;;19.50;40.90;;;;;;5046023;28;20568;-51
2023/07/29 12:05:25;;;;;;;6.07;4.97;;;19.60;44.20;;;;;;5048383;28;20466;-51
2023/07/29 12:07:52;;;;;;;13.80;5.87;;;19.60;44.10;;;;;;5047722;28;20544;-52
2023/07/29 12:10:21;;;;;;;5.13;4.63;;;19.60;42.10;;;;;;5050814;28;20572;-52
2023/07/29 12:12:50;;;;;;;7.23;6.03;;;19.60;41.70;;;;;;5051160;28;20465;-51
2023/07/29 12:15:24;;;;;;;8.10;5.70;;;19.70;42.30;;;;;;5044768;28;20963;-51
2023/07/29 12:17:54;;;;;;;7.23;5.50;;;19.60;40.80;;;;;;5044766;28;20489;-51
2023/07/29 12:20:21;;;;;;;7.83;6.13;;;19.60;41.30;;;;;;5041316;28;20959;-52
2023/07/29 12:22:52;;;;;;;7.20;6.10;;;19.60;41.20;;;;;;5049719;28;20553;-53
2023/07/29 12:25:21;;;;;;;6.73;5.70;;;19.50;41.20;;;;;;5048519;28;20454;-52
2023/07/29 12:27:47;;;;;;;7.43;5.80;;;19.50;41.60;;;;;;5049723;28;20454;-51
2023/07/29 12:30:14;;;;;;;9.20;5.10;;;19.60;45.50;;;;;;5050738;28;20497;-52
2023/07/29 12:32:45;;;;;;;10.80;6.20;;;19.60;47.50;;;;;;5047206;28;20568;-53
2023/07/29 12:35:11;;;;;;;12.43;7.30;;;19.60;48.90;;;;;;5048114;28;20492;-51
2023/07/29 12:37:38;;;;;;;7.20;5.40;;;19.60;48.40;;;;;;5049951;28;20500;-53
2023/07/29 12:40:06;;;;;;;5.80;5.30;;;19.60;48.90;;;;;;5044097;28;20554;-51
2023/07/29 12:42:34;;;;;;;6.53;5.47;;;19.70;49.30;;;;;;5044701;28;21039;-52
2023/07/29 12:45:00;;;;;;;16.60;6.13;;;19.80;49.70;;;;;;5039797;28;20566;-51
2023/07/29 12:47:27;;;;;;;8.67;5.80;;;20.00;48.70;;;;;;5045897;28;20537;-52